sensor_id;sensor_type;location;lat;lon;timestamp;pressure;altitude;pressure_sealevel;temperature
74043;BMP280;62384;53.600;10.040;2022-12-07T00:01:20;-9364.63;;;4.39
74043;BMP280;62384;53.600;10.040;2022-12-07T00:03:47;-9365.28;;;4.42
74043;BMP280;62384;53.600;10.040;2022-12-07T00:06:14;-9363.16;;;4.34
74043;BMP280;62384;53.600;10.040;2022-12-07T00:08:40;-9362.78;;;4.32
74043;BMP280;62384;53.600;10.040;2022-12-07T00:11:14;-9363.44;;;4.35
74043;BMP280;62384;53.600;10.040;2022-12-07T00:13:40;-9364.09;;;4.37
74043;BMP280;62384;53.600;10.040;2022-12-07T00:16:08;-9363.31;;;4.34
74043;BMP280;62384;53.600;10.040;2022-12-07T00:18:33;-9364.09;;;4.37
74043;BMP280;62384;53.600;10.040;2022-12-07T00:21:04;-9364.63;;;4.39
74043;BMP280;62384;53.600;10.040;2022-12-07T00:23:29;-9364.47;;;4.39
74043;BMP280;62384;53.600;10.040;2022-12-07T00:25:55;-9363.44;;;4.35
74043;BMP280;62384;53.600;10.040;2022-12-07T00:28:20;-9363.69;;;4.36
74043;BMP280;62384;53.600;10.040;2022-12-07T00:30:45;-9364.22;;;4.38
74043;BMP280;62384;53.600;10.040;2022-12-07T00:33:10;-9362.66;;;4.32
74043;BMP280;62384;53.600;10.040;2022-12-07T00:35:36;-9366.19;;;4.46
74043;BMP280;62384;53.600;10.040;2022-12-07T00:38:01;-9364.88;;;4.40
74043;BMP280;62384;53.600;10.040;2022-12-07T00:40:26;-9364.75;;;4.40
74043;BMP280;62384;53.600;10.040;2022-12-07T00:42:54;-9365.94;;;4.45
74043;BMP280;62384;53.600;10.040;2022-12-07T00:45:20;-9364.63;;;4.39
74043;BMP280;62384;53.600;10.040;2022-12-07T00:47:45;-9365.41;;;4.43
74043;BMP280;62384;53.600;10.040;2022-12-07T00:50:10;-9364.75;;;4.40
74043;BMP280;62384;53.600;10.040;2022-12-07T00:52:35;-9363.31;;;4.34
74043;BMP280;62384;53.600;10.040;2022-12-07T00:55:01;-9366.84;;;4.48
74043;BMP280;62384;53.600;10.040;2022-12-07T00:57:26;-9363.03;;;4.33
74043;BMP280;62384;53.600;10.040;2022-12-07T00:59:51;-9363.56;;;4.35
74043;BMP280;62384;53.600;10.040;2022-12-07T01:02:20;-9365.66;;;4.44
74043;BMP280;62384;53.600;10.040;2022-12-07T01:04:45;-9360.28;;;4.23
74043;BMP280;62384;53.600;10.040;2022-12-07T01:07:10;-9365.81;;;4.44
74043;BMP280;62384;53.600;10.040;2022-12-07T01:09:35;-9366.47;;;4.47
74043;BMP280;62384;53.600;10.040;2022-12-07T01:12:01;-9368.69;;;4.55
74043;BMP280;62384;53.600;10.040;2022-12-07T01:14:26;-9367.78;;;4.52
74043;BMP280;62384;53.600;10.040;2022-12-07T01:16:51;-9367.38;;;4.50
74043;BMP280;62384;53.600;10.040;2022-12-07T01:19:16;-9364.63;;;4.39
74043;BMP280;62384;53.600;10.040;2022-12-07T01:21:42;-9368.03;;;4.53
74043;BMP280;62384;53.600;10.040;2022-12-07T01:24:09;-9370.00;;;4.60
74043;BMP280;62384;53.600;10.040;2022-12-07T01:26:35;-9367.38;;;4.50
74043;BMP280;62384;53.600;10.040;2022-12-07T01:29:00;-9366.31;;;4.46
74043;BMP280;62384;53.600;10.040;2022-12-07T01:31:26;-9365.94;;;4.45
74043;BMP280;62384;53.600;10.040;2022-12-07T01:33:54;-9362.66;;;4.32
74043;BMP280;62384;53.600;10.040;2022-12-07T01:36:24;-9365.94;;;4.45
74043;BMP280;62384;53.600;10.040;2022-12-07T01:38:53;-9364.88;;;4.40
74043;BMP280;62384;53.600;10.040;2022-12-07T01:41:21;-9366.47;;;4.47
74043;BMP280;62384;53.600;10.040;2022-12-07T01:46:37;-9367.13;;;4.49
74043;BMP280;62384;53.600;10.040;2022-12-07T01:49:06;-9366.47;;;4.47
74043;BMP280;62384;53.600;10.040;2022-12-07T01:51:32;-9364.47;;;4.39
74043;BMP280;62384;53.600;10.040;2022-12-07T01:53:58;-9363.16;;;4.34
74043;BMP280;62384;53.600;10.040;2022-12-07T01:56:26;-9364.22;;;4.38
74043;BMP280;62384;53.600;10.040;2022-12-07T01:58:52;-9362.66;;;4.32
74043;BMP280;62384;53.600;10.040;2022-12-07T02:01:19;-9361.34;;;4.27
74043;BMP280;62384;53.600;10.040;2022-12-07T02:03:44;-9361.19;;;4.26
74043;BMP280;62384;53.600;10.040;2022-12-07T02:06:13;-9361.06;;;4.26
74043;BMP280;62384;53.600;10.040;2022-12-07T02:08:41;-9358.97;;;4.18
74043;BMP280;62384;53.600;10.040;2022-12-07T02:11:07;-9358.56;;;4.16
74043;BMP280;62384;53.600;10.040;2022-12-07T02:13:35;-9358.03;;;4.14
74043;BMP280;62384;53.600;10.040;2022-12-07T02:21:51;-9356.72;;;4.09
74043;BMP280;62384;53.600;10.040;2022-12-07T02:27:38;-9355.81;;;4.06
74043;BMP280;62384;53.600;10.040;2022-12-07T02:30:09;-9355.81;;;4.06
74043;BMP280;62384;53.600;10.040;2022-12-07T02:32:43;-9355.81;;;4.06
74043;BMP280;62384;53.600;10.040;2022-12-07T02:35:15;-9355.53;;;4.05
74043;BMP280;62384;53.600;10.040;2022-12-07T02:37:49;-9355.41;;;4.04
74043;BMP280;62384;53.600;10.040;2022-12-07T02:43:19;-9354.50;;;4.01
74043;BMP280;62384;53.600;10.040;2022-12-07T02:45:45;-9353.31;;;3.96
74043;BMP280;62384;53.600;10.040;2022-12-07T02:48:13;-9354.09;;;3.99
74043;BMP280;62384;53.600;10.040;2022-12-07T02:50:44;-9354.75;;;4.02
74043;BMP280;62384;53.600;10.040;2022-12-07T02:53:36;-9354.09;;;3.99
74043;BMP280;62384;53.600;10.040;2022-12-07T02:56:39;-9354.09;;;3.99
74043;BMP280;62384;53.600;10.040;2022-12-07T02:59:49;-9352.53;;;3.93
74043;BMP280;62384;53.600;10.040;2022-12-07T03:13:28;-9348.97;;;3.79
74043;BMP280;62384;53.600;10.040;2022-12-07T03:18:49;-9347.78;;;3.75
74043;BMP280;62384;53.600;10.040;2022-12-07T03:21:20;-9344.91;;;3.64
74043;BMP280;62384;53.600;10.040;2022-12-07T03:23:51;-9344.13;;;3.61
74043;BMP280;62384;53.600;10.040;2022-12-07T03:26:17;-9344.78;;;3.63
74043;BMP280;62384;53.600;10.040;2022-12-07T03:28:50;-9344.13;;;3.61
74043;BMP280;62384;53.600;10.040;2022-12-07T03:31:24;-9343.59;;;3.59
74043;BMP280;62384;53.600;10.040;2022-12-07T03:36:43;-9337.94;;;3.37
74043;BMP280;62384;53.600;10.040;2022-12-07T03:39:22;-9341.34;;;3.50
74043;BMP280;62384;53.600;10.040;2022-12-07T03:41:50;-9341.88;;;3.52
74043;BMP280;62384;53.600;10.040;2022-12-07T03:44:16;-9339.91;;;3.45
74043;BMP280;62384;53.600;10.040;2022-12-07T03:46:44;-9338.47;;;3.39
74043;BMP280;62384;53.600;10.040;2022-12-07T03:51:56;-9338.59;;;3.40
74043;BMP280;62384;53.600;10.040;2022-12-07T03:54:48;-9338.72;;;3.40
74043;BMP280;62384;53.600;10.040;2022-12-07T03:57:17;-9337.53;;;3.36
74043;BMP280;62384;53.600;10.040;2022-12-07T03:59:43;-9335.84;;;3.29
74043;BMP280;62384;53.600;10.040;2022-12-07T04:02:11;-9336.50;;;3.32
74043;BMP280;62384;53.600;10.040;2022-12-07T04:04:37;-9332.94;;;3.18
74043;BMP280;62384;53.600;10.040;2022-12-07T04:07:03;-9333.72;;;3.21
74043;BMP280;62384;53.600;10.040;2022-12-07T04:09:28;-9332.81;;;3.17
74043;BMP280;62384;53.600;10.040;2022-12-07T04:11:53;-9331.25;;;3.11
74043;BMP280;62384;53.600;10.040;2022-12-07T04:14:18;-9330.44;;;3.08
74043;BMP280;62384;53.600;10.040;2022-12-07T04:16:48;-9327.56;;;2.97
74043;BMP280;62384;53.600;10.040;2022-12-07T04:19:15;-9331.50;;;3.12
74043;BMP280;62384;53.600;10.040;2022-12-07T04:21:41;-9330.84;;;3.10
74043;BMP280;62384;53.600;10.040;2022-12-07T04:24:06;-9330.72;;;3.09
74043;BMP280;62384;53.600;10.040;2022-12-07T04:26:32;-9331.09;;;3.11
74043;BMP280;62384;53.600;10.040;2022-12-07T04:28:57;-9329.91;;;3.06
74043;BMP280;62384;53.600;10.040;2022-12-07T04:31:22;-9330.19;;;3.07
74043;BMP280;62384;53.600;10.040;2022-12-07T04:33:47;-9329.00;;;3.03
74043;BMP280;62384;53.600;10.040;2022-12-07T04:36:12;-9327.28;;;2.96
74043;BMP280;62384;53.600;10.040;2022-12-07T04:38:38;-9328.59;;;3.01
74043;BMP280;62384;53.600;10.040;2022-12-07T04:41:07;-9329.41;;;3.04
74043;BMP280;62384;53.600;10.040;2022-12-07T04:43:34;-9326.91;;;2.95
74043;BMP280;62384;53.600;10.040;2022-12-07T04:46:00;-9327.16;;;2.96
74043;BMP280;62384;53.600;10.040;2022-12-07T04:48:25;-9326.91;;;2.95
74043;BMP280;62384;53.600;10.040;2022-12-07T04:50:50;-9322.44;;;2.78
74043;BMP280;62384;53.600;10.040;2022-12-07T04:53:16;-9325.44;;;2.89
74043;BMP280;62384;53.600;10.040;2022-12-07T04:55:41;-9325.44;;;2.89
74043;BMP280;62384;53.600;10.040;2022-12-07T04:58:06;-9328.72;;;3.02
74043;BMP280;62384;53.600;10.040;2022-12-07T05:00:32;-9326.50;;;2.93
74043;BMP280;62384;53.600;10.040;2022-12-07T05:02:57;-9323.63;;;2.82
74043;BMP280;62384;53.600;10.040;2022-12-07T05:05:22;-9325.59;;;2.90
74043;BMP280;62384;53.600;10.040;2022-12-07T05:07:47;-9324.94;;;2.87
74043;BMP280;62384;53.600;10.040;2022-12-07T05:10:13;-9325.97;;;2.91
74043;BMP280;62384;53.600;10.040;2022-12-07T05:12:38;-9326.75;;;2.94
74043;BMP280;62384;53.600;10.040;2022-12-07T05:15:04;-9327.56;;;2.97
74043;BMP280;62384;53.600;10.040;2022-12-07T05:17:29;-9325.72;;;2.90
74043;BMP280;62384;53.600;10.040;2022-12-07T05:19:55;-9324.94;;;2.87
74043;BMP280;62384;53.600;10.040;2022-12-07T05:22:20;-9330.44;;;3.08
74043;BMP280;62384;53.600;10.040;2022-12-07T05:24:46;-9329.13;;;3.03
74043;BMP280;62384;53.600;10.040;2022-12-07T05:27:11;-9328.06;;;2.99
74043;BMP280;62384;53.600;10.040;2022-12-07T05:29:36;-9327.28;;;2.96
74043;BMP280;62384;53.600;10.040;2022-12-07T05:32:02;-9326.75;;;2.94
74043;BMP280;62384;53.600;10.040;2022-12-07T05:34:27;-9324.53;;;2.86
74043;BMP280;62384;53.600;10.040;2022-12-07T05:36:52;-9324.28;;;2.85
74043;BMP280;62384;53.600;10.040;2022-12-07T05:39:17;-9327.41;;;2.97
74043;BMP280;62384;53.600;10.040;2022-12-07T05:41:43;-9326.63;;;2.94
74043;BMP280;62384;53.600;10.040;2022-12-07T05:44:27;-9325.19;;;2.88
74043;BMP280;62384;53.600;10.040;2022-12-07T05:46:52;-9329.13;;;3.03
74043;BMP280;62384;53.600;10.040;2022-12-07T05:49:17;-9326.63;;;2.94
74043;BMP280;62384;53.600;10.040;2022-12-07T05:51:43;-9323.75;;;2.83
74043;BMP280;62384;53.600;10.040;2022-12-07T05:54:08;-9324.66;;;2.86
74043;BMP280;62384;53.600;10.040;2022-12-07T05:56:33;-9326.09;;;2.92
74043;BMP280;62384;53.600;10.040;2022-12-07T05:58:59;-9325.44;;;2.89
74043;BMP280;62384;53.600;10.040;2022-12-07T06:01:42;-9325.59;;;2.90
74043;BMP280;62384;53.600;10.040;2022-12-07T06:04:08;-9324.00;;;2.84
74043;BMP280;62384;53.600;10.040;2022-12-07T06:06:33;-9323.88;;;2.83
74043;BMP280;62384;53.600;10.040;2022-12-07T06:08:58;-9322.31;;;2.77
74043;BMP280;62384;53.600;10.040;2022-12-07T06:11:24;-9320.84;;;2.72
74043;BMP280;62384;53.600;10.040;2022-12-07T06:14:07;-9319.66;;;2.67
74043;BMP280;62384;53.600;10.040;2022-12-07T06:16:33;-9320.97;;;2.72
74043;BMP280;62384;53.600;10.040;2022-12-07T06:18:58;-9323.75;;;2.83
74043;BMP280;62384;53.600;10.040;2022-12-07T06:21:23;-9323.47;;;2.82
74043;BMP280;62384;53.600;10.040;2022-12-07T06:23:50;-9324.94;;;2.87
74043;BMP280;62384;53.600;10.040;2022-12-07T06:26:15;-9328.59;;;3.01
74043;BMP280;62384;53.600;10.040;2022-12-07T06:28:41;-9327.03;;;2.95
74043;BMP280;62384;53.600;10.040;2022-12-07T06:31:07;-9326.91;;;2.95
74043;BMP280;62384;53.600;10.040;2022-12-07T06:33:33;-9326.91;;;2.95
74043;BMP280;62384;53.600;10.040;2022-12-07T06:35:58;-9327.56;;;2.97
74043;BMP280;62384;53.600;10.040;2022-12-07T06:38:24;-9324.41;;;2.85
74043;BMP280;62384;53.600;10.040;2022-12-07T06:40:49;-9325.84;;;2.91
74043;BMP280;62384;53.600;10.040;2022-12-07T06:43:15;-9325.84;;;2.91
74043;BMP280;62384;53.600;10.040;2022-12-07T06:45:40;-9327.16;;;2.96
74043;BMP280;62384;53.600;10.040;2022-12-07T06:48:06;-9327.41;;;2.97
74043;BMP280;62384;53.600;10.040;2022-12-07T06:50:31;-9328.06;;;2.99
74043;BMP280;62384;53.600;10.040;2022-12-07T06:52:56;-9330.06;;;3.07
74043;BMP280;62384;53.600;10.040;2022-12-07T06:55:22;-9330.44;;;3.08
74043;BMP280;62384;53.600;10.040;2022-12-07T06:57:47;-9330.56;;;3.09
74043;BMP280;62384;53.600;10.040;2022-12-07T07:00:12;-9333.34;;;3.19
74043;BMP280;62384;53.600;10.040;2022-12-07T07:02:38;-9332.81;;;3.17
74043;BMP280;62384;53.600;10.040;2022-12-07T07:05:03;-9332.94;;;3.18
74043;BMP280;62384;53.600;10.040;2022-12-07T07:07:29;-9331.50;;;3.12
74043;BMP280;62384;53.600;10.040;2022-12-07T07:09:54;-9333.34;;;3.19
74043;BMP280;62384;53.600;10.040;2022-12-07T07:12:19;-9330.06;;;3.07
74043;BMP280;62384;53.600;10.040;2022-12-07T07:14:44;-9334.38;;;3.23
74043;BMP280;62384;53.600;10.040;2022-12-07T07:17:10;-9335.97;;;3.30
74043;BMP280;62384;53.600;10.040;2022-12-07T07:19:35;-9335.69;;;3.28
74043;BMP280;62384;53.600;10.040;2022-12-07T07:22:02;-9337.66;;;3.36
74043;BMP280;62384;53.600;10.040;2022-12-07T07:24:27;-9336.63;;;3.32
74043;BMP280;62384;53.600;10.040;2022-12-07T07:26:52;-9339.91;;;3.45
74043;BMP280;62384;53.600;10.040;2022-12-07T07:29:18;-9339.00;;;3.41
74043;BMP280;62384;53.600;10.040;2022-12-07T07:31:43;-9337.81;;;3.37
74043;BMP280;62384;53.600;10.040;2022-12-07T07:34:08;-9336.22;;;3.31
74043;BMP280;62384;53.600;10.040;2022-12-07T07:36:34;-9337.81;;;3.37
74043;BMP280;62384;53.600;10.040;2022-12-07T07:38:59;-9335.69;;;3.28
74043;BMP280;62384;53.600;10.040;2022-12-07T07:41:24;-9335.97;;;3.30
74043;BMP280;62384;53.600;10.040;2022-12-07T07:43:49;-9337.41;;;3.35
74043;BMP280;62384;53.600;10.040;2022-12-07T07:46:15;-9340.69;;;3.48
74043;BMP280;62384;53.600;10.040;2022-12-07T07:48:40;-9339.91;;;3.45
74043;BMP280;62384;53.600;10.040;2022-12-07T07:51:06;-9341.22;;;3.50
74043;BMP280;62384;53.600;10.040;2022-12-07T07:53:32;-9338.84;;;3.41
74043;BMP280;62384;53.600;10.040;2022-12-07T07:55:58;-9339.66;;;3.44
74043;BMP280;62384;53.600;10.040;2022-12-07T07:58:23;-9342.28;;;3.54
74043;BMP280;62384;53.600;10.040;2022-12-07T08:00:48;-9344.13;;;3.61
74043;BMP280;62384;53.600;10.040;2022-12-07T08:03:14;-9341.88;;;3.52
74043;BMP280;62384;53.600;10.040;2022-12-07T08:05:39;-9342.53;;;3.55
74043;BMP280;62384;53.600;10.040;2022-12-07T08:08:04;-9343.72;;;3.59
74043;BMP280;62384;53.600;10.040;2022-12-07T08:10:30;-9344.38;;;3.62
74043;BMP280;62384;53.600;10.040;2022-12-07T08:12:57;-9345.81;;;3.67
74043;BMP280;62384;53.600;10.040;2022-12-07T08:15:46;-9349.09;;;3.80
74043;BMP280;62384;53.600;10.040;2022-12-07T08:18:13;-9348.84;;;3.79
74043;BMP280;62384;53.600;10.040;2022-12-07T08:20:39;-9348.19;;;3.76
74043;BMP280;62384;53.600;10.040;2022-12-07T08:23:06;-9348.97;;;3.79
74043;BMP280;62384;53.600;10.040;2022-12-07T08:25:32;-9348.97;;;3.79
74043;BMP280;62384;53.600;10.040;2022-12-07T08:27:57;-9348.31;;;3.77
74043;BMP280;62384;53.600;10.040;2022-12-07T08:30:23;-9349.91;;;3.83
74043;BMP280;62384;53.600;10.040;2022-12-07T08:32:48;-9350.69;;;3.86
74043;BMP280;62384;53.600;10.040;2022-12-07T08:35:14;-9352.53;;;3.93
74043;BMP280;62384;53.600;10.040;2022-12-07T08:37:40;-9354.38;;;4.00
74043;BMP280;62384;53.600;10.040;2022-12-07T08:40:11;-9356.34;;;4.08
74043;BMP280;62384;53.600;10.040;2022-12-07T08:42:40;-9354.38;;;4.00
74043;BMP280;62384;53.600;10.040;2022-12-07T08:45:06;-9355.03;;;4.03
74043;BMP280;62384;53.600;10.040;2022-12-07T08:47:34;-9358.03;;;4.14
74043;BMP280;62384;53.600;10.040;2022-12-07T08:50:00;-9357.91;;;4.14
74043;BMP280;62384;53.600;10.040;2022-12-07T08:52:29;-9352.66;;;3.94
74043;BMP280;62384;53.600;10.040;2022-12-07T08:54:55;-9359.50;;;4.20
74043;BMP280;62384;53.600;10.040;2022-12-07T08:57:21;-9358.56;;;4.16
74043;BMP280;62384;53.600;10.040;2022-12-07T08:59:46;-9359.75;;;4.21
74043;BMP280;62384;53.600;10.040;2022-12-07T09:02:11;-9362.50;;;4.31
74043;BMP280;62384;53.600;10.040;2022-12-07T09:04:36;-9363.03;;;4.33
74043;BMP280;62384;53.600;10.040;2022-12-07T09:07:02;-9364.09;;;4.37
74043;BMP280;62384;53.600;10.040;2022-12-07T09:09:27;-9361.47;;;4.27
74043;BMP280;62384;53.600;10.040;2022-12-07T09:11:52;-9364.47;;;4.39
74043;BMP280;62384;53.600;10.040;2022-12-07T09:14:17;-9363.44;;;4.35
74043;BMP280;62384;53.600;10.040;2022-12-07T09:16:44;-9366.31;;;4.46
74043;BMP280;62384;53.600;10.040;2022-12-07T09:19:09;-9366.31;;;4.46
74043;BMP280;62384;53.600;10.040;2022-12-07T09:21:34;-9369.75;;;4.59
74043;BMP280;62384;53.600;10.040;2022-12-07T09:23:59;-9367.91;;;4.52
74043;BMP280;62384;53.600;10.040;2022-12-07T09:26:25;-9369.88;;;4.60
74043;BMP280;62384;53.600;10.040;2022-12-07T09:28:51;-9371.06;;;4.64
74043;BMP280;62384;53.600;10.040;2022-12-07T09:31:16;-9370.13;;;4.61
74043;BMP280;62384;53.600;10.040;2022-12-07T09:33:41;-9372.63;;;4.70
74043;BMP280;62384;53.600;10.040;2022-12-07T09:36:06;-9369.75;;;4.59
74043;BMP280;62384;53.600;10.040;2022-12-07T09:38:32;-9370.94;;;4.64
74043;BMP280;62384;53.600;10.040;2022-12-07T09:41:04;-9374.34;;;4.77
74043;BMP280;62384;53.600;10.040;2022-12-07T09:43:30;-9371.72;;;4.67
74043;BMP280;62384;53.600;10.040;2022-12-07T09:45:55;-9375.66;;;4.82
74043;BMP280;62384;53.600;10.040;2022-12-07T09:48:30;-9378.81;;;4.94
74043;BMP280;62384;53.600;10.040;2022-12-07T09:50:58;-9379.34;;;4.96
74043;BMP280;62384;53.600;10.040;2022-12-07T09:53:34;-9380.91;;;5.02
74043;BMP280;62384;53.600;10.040;2022-12-07T09:56:02;-9376.97;;;4.87
74043;BMP280;62384;53.600;10.040;2022-12-07T09:58:28;-9376.72;;;4.86
74043;BMP280;62384;53.600;10.040;2022-12-07T10:01:00;-9377.88;;;4.90
74043;BMP280;62384;53.600;10.040;2022-12-07T10:03:29;-9379.72;;;4.97
74043;BMP280;62384;53.600;10.040;2022-12-07T10:05:54;-9374.09;;;4.76
74043;BMP280;62384;53.600;10.040;2022-12-07T10:08:20;-9380.00;;;4.98
74043;BMP280;62384;53.600;10.040;2022-12-07T10:10:51;-9380.66;;;5.01
74043;BMP280;62384;53.600;10.040;2022-12-07T10:13:20;-9380.53;;;5.00
74043;BMP280;62384;53.600;10.040;2022-12-07T10:18:35;-9380.25;;;4.99
74043;BMP280;62384;53.600;10.040;2022-12-07T10:21:14;-9383.41;;;5.12
74043;BMP280;62384;53.600;10.040;2022-12-07T10:23:42;-9384.34;;;5.15
74043;BMP280;62384;53.600;10.040;2022-12-07T10:26:36;-9386.69;;;5.24
74043;BMP280;62384;53.600;10.040;2022-12-07T10:29:14;-9384.34;;;5.15
74043;BMP280;62384;53.600;10.040;2022-12-07T10:31:41;-9381.19;;;5.03
74043;BMP280;62384;53.600;10.040;2022-12-07T10:34:28;-9381.06;;;5.03
74043;BMP280;62384;53.600;10.040;2022-12-07T10:37:13;-9381.97;;;5.06
74043;BMP280;62384;53.600;10.040;2022-12-07T10:42:20;-9385.41;;;5.19
74043;BMP280;62384;53.600;10.040;2022-12-07T10:44:46;-9383.81;;;5.13
74043;BMP280;62384;53.600;10.040;2022-12-07T10:47:34;-9391.44;;;5.42
74043;BMP280;62384;53.600;10.040;2022-12-07T10:55:53;-9390.25;;;5.38
74043;BMP280;62384;53.600;10.040;2022-12-07T11:01:33;-9395.91;;;5.59
74043;BMP280;62384;53.600;10.040;2022-12-07T11:06:59;-9404.47;;;5.92
74043;BMP280;62384;53.600;10.040;2022-12-07T11:09:51;-9402.88;;;5.86
74043;BMP280;62384;53.600;10.040;2022-12-07T11:12:29;-9403.41;;;5.88
74043;BMP280;62384;53.600;10.040;2022-12-07T11:15:11;-9401.56;;;5.81
74043;BMP280;62384;53.600;10.040;2022-12-07T11:17:51;-9400.50;;;5.77
74043;BMP280;62384;53.600;10.040;2022-12-07T11:23:29;-9398.28;;;5.69
74043;BMP280;62384;53.600;10.040;2022-12-07T11:29:33;-9397.50;;;5.66
74043;BMP280;62384;53.600;10.040;2022-12-07T11:34:59;-9400.91;;;5.79
74043;BMP280;62384;53.600;10.040;2022-12-07T11:37:33;-9401.56;;;5.81
74043;BMP280;62384;53.600;10.040;2022-12-07T11:40:05;-9400.66;;;5.78
74043;BMP280;62384;53.600;10.040;2022-12-07T11:42:37;-9400.50;;;5.77
74043;BMP280;62384;53.600;10.040;2022-12-07T11:45:21;-9401.69;;;5.82
74043;BMP280;62384;53.600;10.040;2022-12-07T11:48:02;-9400.91;;;5.79
74043;BMP280;62384;53.600;10.040;2022-12-07T11:50:45;-9402.50;;;5.85
74043;BMP280;62384;53.600;10.040;2022-12-07T11:53:20;-9404.06;;;5.91
74043;BMP280;62384;53.600;10.040;2022-12-07T11:58:38;-9407.34;;;6.03
74043;BMP280;62384;53.600;10.040;2022-12-07T12:03:45;-9408.28;;;6.07
74043;BMP280;62384;53.600;10.040;2022-12-07T12:06:11;-9405.25;;;5.95
74043;BMP280;62384;53.600;10.040;2022-12-07T12:08:44;-9420.63;;;6.54
74043;BMP280;62384;53.600;10.040;2022-12-07T12:14:00;-9422.88;;;6.63
74043;BMP280;62384;53.600;10.040;2022-12-07T12:16:48;-9431.81;;;6.97
74043;BMP280;62384;53.600;10.040;2022-12-07T12:19:42;-9433.13;;;7.02
74043;BMP280;62384;53.600;10.040;2022-12-07T12:22:18;-9431.41;;;6.96
74043;BMP280;62384;53.600;10.040;2022-12-07T12:24:49;-9427.47;;;6.80
74043;BMP280;62384;53.600;10.040;2022-12-07T12:27:27;-9423.91;;;6.67
74043;BMP280;62384;53.600;10.040;2022-12-07T12:29:58;-9418.66;;;6.47
74043;BMP280;62384;53.600;10.040;2022-12-07T12:32:40;-9419.44;;;6.50
74043;BMP280;62384;53.600;10.040;2022-12-07T12:37:53;-9413.78;;;6.28
74043;BMP280;62384;53.600;10.040;2022-12-07T12:42:49;-9415.09;;;6.33
74043;BMP280;62384;53.600;10.040;2022-12-07T12:45:22;-9418.94;;;6.48
74043;BMP280;62384;53.600;10.040;2022-12-07T12:48:02;-9420.25;;;6.53
74043;BMP280;62384;53.600;10.040;2022-12-07T12:53:38;-9417.22;;;6.41
74043;BMP280;62384;53.600;10.040;2022-12-07T12:59:38;-9411.94;;;6.21
74043;BMP280;62384;53.600;10.040;2022-12-07T13:02:30;-9411.94;;;6.21
74043;BMP280;62384;53.600;10.040;2022-12-07T13:10:25;-9404.31;;;5.92
74043;BMP280;62384;53.600;10.040;2022-12-07T13:13:43;-9405.13;;;5.95
74043;BMP280;62384;53.600;10.040;2022-12-07T13:15:56;-9404.06;;;5.91
74043;BMP280;62384;53.600;10.040;2022-12-07T13:18:39;-9402.50;;;5.85
74043;BMP280;62384;53.600;10.040;2022-12-07T13:26:35;-9406.16;;;5.99
74043;BMP280;62384;53.600;10.040;2022-12-07T13:29:11;-9405.91;;;5.98
74043;BMP280;62384;53.600;10.040;2022-12-07T13:31:51;-9405.25;;;5.95
74043;BMP280;62384;53.600;10.040;2022-12-07T13:34:46;-9406.56;;;6.00
74043;BMP280;62384;53.600;10.040;2022-12-07T13:37:20;-9404.31;;;5.92
74043;BMP280;62384;53.600;10.040;2022-12-07T13:39:52;-9404.19;;;5.91
74043;BMP280;62384;53.600;10.040;2022-12-07T13:42:24;-9403.94;;;5.90
74043;BMP280;62384;53.600;10.040;2022-12-07T13:44:50;-9396.16;;;5.60
74043;BMP280;62384;53.600;10.040;2022-12-07T13:47:35;-9398.53;;;5.70
74043;BMP280;62384;53.600;10.040;2022-12-07T13:50:20;-9398.16;;;5.68
74043;BMP280;62384;53.600;10.040;2022-12-07T13:52:47;-9394.84;;;5.55
74043;BMP280;62384;53.600;10.040;2022-12-07T13:55:15;-9395.66;;;5.58
74043;BMP280;62384;53.600;10.040;2022-12-07T13:57:44;-9396.03;;;5.60
74043;BMP280;62384;53.600;10.040;2022-12-07T14:00:20;-9395.66;;;5.58
74043;BMP280;62384;53.600;10.040;2022-12-07T14:05:39;-9389.59;;;5.35
74043;BMP280;62384;53.600;10.040;2022-12-07T14:08:22;-9392.22;;;5.45
74043;BMP280;62384;53.600;10.040;2022-12-07T14:13:31;-9388.81;;;5.32
74043;BMP280;62384;53.600;10.040;2022-12-07T14:15:59;-9388.94;;;5.33
74043;BMP280;62384;53.600;10.040;2022-12-07T14:18:39;-9387.75;;;5.28
74043;BMP280;62384;53.600;10.040;2022-12-07T14:21:14;-9389.59;;;5.35
74043;BMP280;62384;53.600;10.040;2022-12-07T14:23:41;-9384.34;;;5.15
74043;BMP280;62384;53.600;10.040;2022-12-07T14:26:10;-9386.06;;;5.22
74043;BMP280;62384;53.600;10.040;2022-12-07T14:28:36;-9383.81;;;5.13
74043;BMP280;62384;53.600;10.040;2022-12-07T14:31:03;-9382.91;;;5.10
74043;BMP280;62384;53.600;10.040;2022-12-07T14:33:29;-9381.56;;;5.05
74043;BMP280;62384;53.600;10.040;2022-12-07T14:35:55;-9379.72;;;4.97
74043;BMP280;62384;53.600;10.040;2022-12-07T14:38:24;-9376.44;;;4.85
74043;BMP280;62384;53.600;10.040;2022-12-07T14:40:51;-9376.31;;;4.84
74043;BMP280;62384;53.600;10.040;2022-12-07T14:43:18;-9375.53;;;4.81
74043;BMP280;62384;53.600;10.040;2022-12-07T14:45:44;-9372.38;;;4.69
74043;BMP280;62384;53.600;10.040;2022-12-07T14:48:14;-9373.69;;;4.74
74043;BMP280;62384;53.600;10.040;2022-12-07T14:50:43;-9371.06;;;4.64
74043;BMP280;62384;53.600;10.040;2022-12-07T14:53:14;-9367.78;;;4.52
74043;BMP280;62384;53.600;10.040;2022-12-07T14:55:41;-9365.66;;;4.44
74043;BMP280;62384;53.600;10.040;2022-12-07T14:58:06;-9364.63;;;4.39
74043;BMP280;62384;53.600;10.040;2022-12-07T15:00:35;-9362.50;;;4.31
74043;BMP280;62384;53.600;10.040;2022-12-07T15:03:00;-9361.06;;;4.26
74043;BMP280;62384;53.600;10.040;2022-12-07T15:05:26;-9359.88;;;4.21
74043;BMP280;62384;53.600;10.040;2022-12-07T15:07:51;-9359.34;;;4.19
74043;BMP280;62384;53.600;10.040;2022-12-07T15:10:25;-9359.22;;;4.19
74043;BMP280;62384;53.600;10.040;2022-12-07T15:12:55;-9357.53;;;4.12
74043;BMP280;62384;53.600;10.040;2022-12-07T15:15:20;-9357.91;;;4.14
74043;BMP280;62384;53.600;10.040;2022-12-07T15:17:45;-9357.13;;;4.11
74043;BMP280;62384;53.600;10.040;2022-12-07T15:20:13;-9358.97;;;4.18
74043;BMP280;62384;53.600;10.040;2022-12-07T15:22:38;-9356.06;;;4.07
74043;BMP280;62384;53.600;10.040;2022-12-07T15:25:04;-9356.06;;;4.07
74043;BMP280;62384;53.600;10.040;2022-12-07T15:27:30;-9351.59;;;3.90
74043;BMP280;62384;53.600;10.040;2022-12-07T15:29:56;-9354.09;;;3.99
74043;BMP280;62384;53.600;10.040;2022-12-07T15:32:21;-9354.88;;;4.02
74043;BMP280;62384;53.600;10.040;2022-12-07T15:34:48;-9353.69;;;3.98
74043;BMP280;62384;53.600;10.040;2022-12-07T15:37:13;-9352.13;;;3.92
74043;BMP280;62384;53.600;10.040;2022-12-07T15:39:38;-9353.19;;;3.96
74043;BMP280;62384;53.600;10.040;2022-12-07T15:42:04;-9352.91;;;3.95
74043;BMP280;62384;53.600;10.040;2022-12-07T15:44:29;-9351.22;;;3.88
74043;BMP280;62384;53.600;10.040;2022-12-07T15:47:13;-9347.91;;;3.75
74043;BMP280;62384;53.600;10.040;2022-12-07T15:49:38;-9347.66;;;3.74
74043;BMP280;62384;53.600;10.040;2022-12-07T15:52:04;-9346.75;;;3.71
74043;BMP280;62384;53.600;10.040;2022-12-07T15:54:29;-9348.56;;;3.78
74043;BMP280;62384;53.600;10.040;2022-12-07T15:56:55;-9345.81;;;3.67